Time;durP1;ratioP1;P1;durP2;ratioP2;P2;SDS_P1;SDS_P2;PMS_P1;PMS_P2;Temp;Humidity;BMP_temperature;BMP_pressure;BME280_temperature;BME280_humidity;BME280_pressure;Samples;Min_cycle;Max_cycle;Signal;HPM_P1;HPM_P2
2022/07/23 00:02:11;;;;;;;3.00;2.80;;;;;;;;;;5137716;27;20230;-64
2022/07/23 00:04:38;;;;;;;3.08;2.88;;;;;;;;;;5137107;27;20230;-64
2022/07/23 00:07:06;;;;;;;2.83;2.70;;;;;;;;;;5137053;27;20236;-65
2022/07/23 00:09:34;;;;;;;3.00;2.80;;;;;;;;;;5137599;27;20784;-64
2022/07/23 00:12:01;;;;;;;3.30;3.10;;;;;;;;;;5136782;27;20229;-65
2022/07/23 00:14:29;;;;;;;3.08;2.88;;;;;;;;;;5137239;27;20222;-65
2022/07/23 00:16:56;;;;;;;3.33;3.13;;;;;;;;;;5137170;27;20230;-65
2022/07/23 00:19:25;;;;;;;3.10;2.90;;;;;;;;;;5138239;27;20248;-65
2022/07/23 00:21:53;;;;;;;3.00;2.80;;;;;;;;;;5136997;27;20222;-64
2022/07/23 00:24:21;;;;;;;3.20;3.00;;;;;;;;;;5136904;27;20629;-64
2022/07/23 00:26:48;;;;;;;3.47;3.20;;;;;;;;;;5137568;27;20245;-64
2022/07/23 00:29:16;;;;;;;3.28;2.97;;;;;;;;;;5136873;27;20233;-65
2022/07/23 00:31:43;;;;;;;3.17;2.92;;;;;;;;;;5137233;27;20225;-65
2022/07/23 00:34:11;;;;;;;3.25;3.05;;;;;;;;;;5137908;27;20568;-65
2022/07/23 00:36:41;;;;;;;3.10;2.90;;;;;;;;;;5136278;27;20225;-64
2022/07/23 00:39:08;;;;;;;2.88;2.67;;;;;;;;;;5136940;27;20317;-64
2022/07/23 00:41:36;;;;;;;3.15;2.92;;;;;;;;;;5135473;27;20229;-64
2022/07/23 00:44:17;;;;;;;3.28;2.97;;;;;;;;;;5137175;27;20244;-64
2022/07/23 00:46:47;;;;;;;3.13;2.92;;;;;;;;;;5136156;27;20221;-65
2022/07/23 00:49:14;;;;;;;2.88;2.72;;;;;;;;;;5137895;27;20223;-64
2022/07/23 00:51:43;;;;;;;3.10;2.90;;;;;;;;;;5136853;27;20641;-64
2022/07/23 00:54:11;;;;;;;2.90;2.70;;;;;;;;;;5137744;27;20230;-65
2022/07/23 00:56:40;;;;;;;3.10;2.90;;;;;;;;;;5137106;27;20500;-64
2022/07/23 00:59:07;;;;;;;2.85;2.72;;;;;;;;;;5137730;27;20670;-64
2022/07/23 01:01:35;;;;;;;3.00;2.83;;;;;;;;;;5136147;27;20588;-64
2022/07/23 01:04:02;;;;;;;3.00;2.80;;;;;;;;;;5138306;27;20660;-64
2022/07/23 01:06:30;;;;;;;3.13;2.92;;;;;;;;;;5138440;27;20207;-64
2022/07/23 01:09:00;;;;;;;2.97;2.78;;;;;;;;;;5137481;27;20266;-64
2022/07/23 01:11:27;;;;;;;3.17;2.90;;;;;;;;;;5136642;27;20198;-64
2022/07/23 01:13:55;;;;;;;2.90;2.70;;;;;;;;;;5137547;28;20276;-64
2022/07/23 01:16:22;;;;;;;3.03;2.83;;;;;;;;;;5138185;28;20202;-64
2022/07/23 01:18:50;;;;;;;2.90;2.70;;;;;;;;;;5138252;28;20262;-64
2022/07/23 01:21:19;;;;;;;3.03;2.83;;;;;;;;;;5136907;28;20198;-64
2022/07/23 01:23:48;;;;;;;3.33;3.13;;;;;;;;;;5136858;28;20251;-63
2022/07/23 01:26:17;;;;;;;3.20;3.00;;;;;;;;;;5121402;28;20194;-63
2022/07/23 01:28:44;;;;;;;3.20;3.00;;;;;;;;;;5137269;28;20595;-64
2022/07/23 01:31:12;;;;;;;2.85;2.65;;;;;;;;;;5137414;28;20195;-66
2022/07/23 01:33:39;;;;;;;3.13;2.92;;;;;;;;;;5137354;28;20190;-64
2022/07/23 01:36:08;;;;;;;3.10;2.90;;;;;;;;;;5137626;28;20202;-64
2022/07/23 01:38:36;;;;;;;3.17;2.97;;;;;;;;;;5135486;27;20234;-64
2022/07/23 01:41:05;;;;;;;3.05;2.85;;;;;;;;;;5136927;27;20465;-64
2022/07/23 01:43:32;;;;;;;3.17;2.97;;;;;;;;;;5136181;27;20226;-64
2022/07/23 01:46:00;;;;;;;3.10;2.90;;;;;;;;;;5137322;28;20199;-64
2022/07/23 01:48:28;;;;;;;3.38;3.17;;;;;;;;;;5137195;28;20227;-64
2022/07/23 01:50:56;;;;;;;3.20;3.00;;;;;;;;;;5136527;28;20287;-64
2022/07/23 01:53:23;;;;;;;3.42;3.03;;;;;;;;;;5137207;27;20195;-64
2022/07/23 01:55:51;;;;;;;3.40;3.10;;;;;;;;;;5117671;28;20238;-64
2022/07/23 01:58:20;;;;;;;3.00;2.80;;;;;;;;;;5137245;28;20202;-64
2022/07/23 02:00:47;;;;;;;3.53;3.33;;;;;;;;;;5137887;27;20206;-65
2022/07/23 02:03:15;;;;;;;3.20;2.97;;;;;;;;;;5137440;28;20279;-65
2022/07/23 02:05:42;;;;;;;3.00;2.80;;;;;;;;;;5137873;27;20210;-65
2022/07/23 02:08:10;;;;;;;3.20;3.00;;;;;;;;;;5137270;28;20507;-64
2022/07/23 02:10:38;;;;;;;3.20;3.00;;;;;;;;;;5136340;27;20295;-65
2022/07/23 02:13:05;;;;;;;3.13;2.92;;;;;;;;;;5137958;27;20806;-64
2022/07/23 02:15:35;;;;;;;3.38;3.08;;;;;;;;;;5139992;27;20578;-65
2022/07/23 02:18:02;;;;;;;3.05;2.85;;;;;;;;;;5140700;27;20209;-65
2022/07/23 02:20:30;;;;;;;3.40;3.20;;;;;;;;;;5141359;27;20213;-65
2022/07/23 02:22:58;;;;;;;3.40;3.20;;;;;;;;;;5141032;27;20282;-64
2022/07/23 02:25:25;;;;;;;3.50;3.30;;;;;;;;;;5140748;27;20198;-65
2022/07/23 02:27:53;;;;;;;3.58;3.35;;;;;;;;;;5140311;27;20199;-65
2022/07/23 02:30:21;;;;;;;3.45;3.22;;;;;;;;;;5140576;27;20232;-65
2022/07/23 02:32:50;;;;;;;3.28;3.08;;;;;;;;;;5128549;27;20195;-65
2022/07/23 02:35:17;;;;;;;3.60;3.40;;;;;;;;;;5136681;27;20276;-65
2022/07/23 02:37:45;;;;;;;3.53;3.33;;;;;;;;;;5132395;27;20203;-64
2022/07/23 02:40:13;;;;;;;3.30;3.10;;;;;;;;;;5119720;28;20265;-65
2022/07/23 02:42:41;;;;;;;3.17;2.97;;;;;;;;;;5098287;28;20254;-66
2022/07/23 02:45:09;;;;;;;3.55;3.35;;;;;;;;;;5124137;27;20285;-65
2022/07/23 02:47:36;;;;;;;3.40;3.20;;;;;;;;;;5139526;27;20198;-65
2022/07/23 02:50:06;;;;;;;3.58;3.28;;;;;;;;;;5103920;28;20199;-65
2022/07/23 02:52:34;;;;;;;3.45;3.25;;;;;;;;;;5119903;27;20217;-65
2022/07/23 02:55:02;;;;;;;3.60;3.40;;;;;;;;;;5119427;28;20198;-65
2022/07/23 02:57:30;;;;;;;3.65;3.35;;;;;;;;;;5119650;28;20206;-65
2022/07/23 02:59:57;;;;;;;3.33;3.13;;;;;;;;;;5128023;27;20197;-64
2022/07/23 03:02:25;;;;;;;3.38;3.17;;;;;;;;;;5124051;27;20235;-64
2022/07/23 03:04:52;;;;;;;3.67;3.47;;;;;;;;;;5137765;27;20213;-65
2022/07/23 03:07:21;;;;;;;3.45;3.15;;;;;;;;;;5139608;27;20198;-65
2022/07/23 03:09:50;;;;;;;3.47;3.28;;;;;;;;;;5135672;27;20248;-64
2022/07/23 03:12:17;;;;;;;3.75;3.55;;;;;;;;;;5139731;27;20233;-64
2022/07/23 03:14:45;;;;;;;3.55;3.35;;;;;;;;;;5139983;27;20272;-64
2022/07/23 03:17:12;;;;;;;3.55;3.35;;;;;;;;;;5136870;27;20596;-64
2022/07/23 03:19:40;;;;;;;3.70;3.50;;;;;;;;;;5119702;27;20222;-64
2022/07/23 03:22:07;;;;;;;3.63;3.10;;;;;;;;;;5119438;28;20489;-64
2022/07/23 03:24:55;;;;;;;3.65;3.35;;;;;;;;;;5118873;28;20203;-64
2022/07/23 03:27:23;;;;;;;3.05;2.88;;;;;;;;;;5128636;27;20625;-64
2022/07/23 03:29:51;;;;;;;3.50;3.30;;;;;;;;;;5135231;27;20276;-64
2022/07/23 03:32:19;;;;;;;3.80;3.50;;;;;;;;;;5139534;27;20198;-64
2022/07/23 03:34:47;;;;;;;3.28;3.08;;;;;;;;;;5138773;27;20198;-64
2022/07/23 03:37:15;;;;;;;3.75;3.55;;;;;;;;;;5135439;27;20509;-65
2022/07/23 03:39:44;;;;;;;3.65;3.45;;;;;;;;;;5127878;27;20259;-65
2022/07/23 03:42:11;;;;;;;3.70;3.40;;;;;;;;;;5137042;27;20206;-64
2022/07/23 03:44:39;;;;;;;3.55;3.35;;;;;;;;;;5139220;27;20592;-64
2022/07/23 03:47:08;;;;;;;3.47;3.28;;;;;;;;;;5137589;27;20632;-65
2022/07/23 03:49:35;;;;;;;3.60;3.40;;;;;;;;;;5138810;27;20206;-64
2022/07/23 03:52:04;;;;;;;3.65;3.45;;;;;;;;;;5139203;27;20248;-65
2022/07/23 03:54:31;;;;;;;4.00;3.70;;;;;;;;;;5139029;27;20194;-64
2022/07/23 03:57:00;;;;;;;3.90;3.63;;;;;;;;;;5139198;27;20259;-65
2022/07/23 03:59:28;;;;;;;3.35;3.15;;;;;;;;;;5138970;27;20209;-64
2022/07/23 04:01:55;;;;;;;3.90;3.70;;;;;;;;;;5138579;27;20198;-65
2022/07/23 04:04:23;;;;;;;3.45;3.25;;;;;;;;;;5138120;27;20279;-65
2022/07/23 04:06:51;;;;;;;3.58;3.38;;;;;;;;;;5137900;27;20222;-65
2022/07/23 04:09:18;;;;;;;3.50;3.30;;;;;;;;;;5138842;27;20219;-65
2022/07/23 04:11:46;;;;;;;3.85;3.65;;;;;;;;;;5137336;27;20210;-65
2022/07/23 04:14:15;;;;;;;3.95;3.70;;;;;;;;;;5137930;27;20199;-64
2022/07/23 04:16:42;;;;;;;3.90;3.60;;;;;;;;;;5138921;27;20209;-65
2022/07/23 04:19:10;;;;;;;3.75;3.55;;;;;;;;;;5138728;27;20205;-64
2022/07/23 04:21:38;;;;;;;3.70;3.50;;;;;;;;;;5137703;27;20309;-66
2022/07/23 04:24:06;;;;;;;3.78;3.58;;;;;;;;;;5137565;27;20631;-65
2022/07/23 04:26:33;;;;;;;3.78;3.58;;;;;;;;;;5138074;27;20198;-64
2022/07/23 04:29:01;;;;;;;3.95;3.75;;;;;;;;;;5138058;27;20242;-64
2022/07/23 04:31:30;;;;;;;3.90;3.60;;;;;;;;;;5138407;27;20198;-64
2022/07/23 04:33:58;;;;;;;3.78;3.58;;;;;;;;;;5118308;28;20195;-64
2022/07/23 04:36:26;;;;;;;3.85;3.65;;;;;;;;;;5117849;28;20236;-65
2022/07/23 04:38:53;;;;;;;3.78;3.58;;;;;;;;;;5137090;27;20209;-64
2022/07/23 04:41:21;;;;;;;3.90;3.60;;;;;;;;;;5137347;27;20538;-64
2022/07/23 04:43:49;;;;;;;4.20;3.90;;;;;;;;;;5137936;27;20218;-64
2022/07/23 04:46:17;;;;;;;3.90;3.70;;;;;;;;;;5138032;27;20229;-64
2022/07/23 04:48:45;;;;;;;3.55;3.35;;;;;;;;;;5136720;27;20199;-65
2022/07/23 04:51:13;;;;;;;3.90;3.70;;;;;;;;;;5136733;27;20596;-65
2022/07/23 04:53:41;;;;;;;4.13;3.83;;;;;;;;;;5136494;27;20567;-65
2022/07/23 04:56:08;;;;;;;4.18;3.95;;;;;;;;;;5138263;27;20210;-64
2022/07/23 04:58:36;;;;;;;3.72;3.47;;;;;;;;;;5137702;27;20217;-64
2022/07/23 05:01:04;;;;;;;4.10;3.83;;;;;;;;;;5137327;27;20205;-64
2022/07/23 05:03:32;;;;;;;3.50;3.30;;;;;;;;;;5136670;27;20249;-64
2022/07/23 05:06:02;;;;;;;4.10;3.80;;;;;;;;;;5138071;27;20247;-65
2022/07/23 05:08:30;;;;;;;4.25;4.05;;;;;;;;;;5136680;27;20266;-65
2022/07/23 05:10:58;;;;;;;3.90;3.70;;;;;;;;;;5137598;27;20263;-64
2022/07/23 05:13:26;;;;;;;4.15;3.85;;;;;;;;;;5137945;27;20202;-66
2022/07/23 05:15:53;;;;;;;3.72;3.53;;;;;;;;;;5137554;28;20268;-64
2022/07/23 05:18:21;;;;;;;4.32;4.03;;;;;;;;;;5137262;28;20198;-64
2022/07/23 05:20:49;;;;;;;4.55;4.25;;;;;;;;;;5136637;27;20257;-64
2022/07/23 05:23:18;;;;;;;3.75;3.55;;;;;;;;;;5136803;27;20229;-64
2022/07/23 05:25:45;;;;;;;4.10;3.90;;;;;;;;;;5138564;27;20646;-64
2022/07/23 05:28:13;;;;;;;4.18;3.97;;;;;;;;;;5137207;28;20514;-64
2022/07/23 05:30:41;;;;;;;3.83;3.63;;;;;;;;;;5137810;28;20194;-64
2022/07/23 05:33:08;;;;;;;4.22;4.00;;;;;;;;;;5137265;28;20256;-65
2022/07/23 05:35:36;;;;;;;4.45;4.15;;;;;;;;;;5137230;28;20230;-66
2022/07/23 05:38:04;;;;;;;4.20;4.00;;;;;;;;;;5136863;27;20286;-64
2022/07/23 05:40:33;;;;;;;4.25;3.95;;;;;;;;;;5137075;28;20190;-64
2022/07/23 05:43:00;;;;;;;4.10;3.90;;;;;;;;;;5137286;28;20275;-64
2022/07/23 05:45:28;;;;;;;4.25;4.05;;;;;;;;;;5137563;28;20230;-64
2022/07/23 05:47:56;;;;;;;3.83;3.53;;;;;;;;;;5137263;27;20203;-64
2022/07/23 05:50:23;;;;;;;4.13;3.90;;;;;;;;;;5141897;27;20213;-64
2022/07/23 05:52:51;;;;;;;4.30;4.00;;;;;;;;;;5140834;27;20209;-64
2022/07/23 05:55:19;;;;;;;4.57;4.28;;;;;;;;;;5141357;27;20217;-64
2022/07/23 05:57:48;;;;;;;4.70;4.40;;;;;;;;;;5141291;27;20254;-64
2022/07/23 06:00:16;;;;;;;4.68;4.38;;;;;;;;;;5141898;27;20236;-64
2022/07/23 06:02:43;;;;;;;4.32;4.03;;;;;;;;;;5140664;27;20201;-64
2022/07/23 06:05:11;;;;;;;4.30;4.00;;;;;;;;;;5140943;27;20683;-64
2022/07/23 06:07:39;;;;;;;4.53;4.15;;;;;;;;;;5141262;27;20225;-64
2022/07/23 06:10:07;;;;;;;4.55;4.25;;;;;;;;;;5140458;27;20247;-65
2022/07/23 06:12:34;;;;;;;4.10;3.90;;;;;;;;;;5139953;27;20241;-64
2022/07/23 06:15:03;;;;;;;4.40;4.10;;;;;;;;;;5141478;27;20198;-65
2022/07/23 06:17:30;;;;;;;4.57;4.28;;;;;;;;;;5141038;27;20241;-65
2022/07/23 06:19:58;;;;;;;4.75;4.35;;;;;;;;;;5140629;27;20214;-64
2022/07/23 06:22:26;;;;;;;4.60;4.30;;;;;;;;;;5140594;27;20287;-64
2022/07/23 06:24:54;;;;;;;4.65;4.35;;;;;;;;;;5139044;27;20237;-64
2022/07/23 06:27:21;;;;;;;4.65;4.35;;;;;;;;;;5139806;27;20206;-64
2022/07/23 06:29:49;;;;;;;5.03;4.70;;;;;;;;;;5140101;27;20238;-64
2022/07/23 06:32:18;;;;;;;4.80;4.50;;;;;;;;;;5133596;27;20249;-64
2022/07/23 06:34:46;;;;;;;4.70;4.40;;;;;;;;;;5129776;27;20237;-64
2022/07/23 06:37:13;;;;;;;4.93;4.63;;;;;;;;;;5135528;27;20279;-64
2022/07/23 06:39:41;;;;;;;4.80;4.50;;;;;;;;;;5139333;27;20258;-64
2022/07/23 06:42:10;;;;;;;4.90;4.60;;;;;;;;;;5120050;27;20203;-64
2022/07/23 06:44:37;;;;;;;4.90;4.60;;;;;;;;;;5119888;28;20603;-64
2022/07/23 06:47:05;;;;;;;4.50;4.20;;;;;;;;;;5119627;28;20199;-64
2022/07/23 06:49:33;;;;;;;5.00;4.70;;;;;;;;;;5119185;27;20199;-64
2022/07/23 06:52:01;;;;;;;5.13;4.72;;;;;;;;;;5119274;28;20210;-64
2022/07/23 06:54:28;;;;;;;5.03;4.72;;;;;;;;;;5135382;27;20556;-64
2022/07/23 06:56:55;;;;;;;4.95;4.65;;;;;;;;;;5138695;27;20198;-64
2022/07/23 06:59:22;;;;;;;4.78;4.47;;;;;;;;;;5136325;27;20199;-64
2022/07/23 07:01:50;;;;;;;5.32;5.03;;;;;;;;;;5122050;27;20194;-64
2022/07/23 07:04:17;;;;;;;5.18;4.78;;;;;;;;;;5139686;27;20294;-64
2022/07/23 07:06:46;;;;;;;5.60;5.20;;;;;;;;;;5138979;27;20202;-64
2022/07/23 07:09:13;;;;;;;5.80;5.40;;;;;;;;;;5125195;27;20198;-66
2022/07/23 07:11:40;;;;;;;4.85;4.55;;;;;;;;;;5134505;27;20199;-65
2022/07/23 07:14:08;;;;;;;5.65;5.25;;;;;;;;;;5133299;27;20662;-64
2022/07/23 07:16:36;;;;;;;5.35;4.95;;;;;;;;;;5125470;27;20194;-64
2022/07/23 07:19:03;;;;;;;5.43;5.03;;;;;;;;;;5139136;27;20202;-64
2022/07/23 07:21:30;;;;;;;5.47;5.07;;;;;;;;;;5138669;27;20500;-66
2022/07/23 07:23:59;;;;;;;5.35;5.05;;;;;;;;;;5139896;27;20237;-64
2022/07/23 07:26:27;;;;;;;5.68;5.30;;;;;;;;;;5138781;27;20537;-64
2022/07/23 07:28:54;;;;;;;5.90;5.50;;;;;;;;;;5133904;27;20242;-64
2022/07/23 07:31:21;;;;;;;5.72;5.32;;;;;;;;;;5123635;27;20199;-64
2022/07/23 07:33:49;;;;;;;5.45;5.05;;;;;;;;;;5139098;27;20255;-64
2022/07/23 07:36:16;;;;;;;6.03;5.63;;;;;;;;;;5119265;27;20540;-65
2022/07/23 07:38:43;;;;;;;5.30;4.90;;;;;;;;;;5118202;28;20561;-65
2022/07/23 07:41:12;;;;;;;5.68;5.28;;;;;;;;;;5117877;28;20538;-64
2022/07/23 07:43:39;;;;;;;5.35;5.05;;;;;;;;;;5118048;28;20206;-65
2022/07/23 07:46:09;;;;;;;5.93;5.53;;;;;;;;;;5117501;28;20234;-64
2022/07/23 07:48:37;;;;;;;5.63;5.25;;;;;;;;;;5098722;28;20223;-64
2022/07/23 07:51:05;;;;;;;6.07;5.57;;;;;;;;;;5117438;28;20226;-65
2022/07/23 07:53:32;;;;;;;5.97;5.55;;;;;;;;;;5134448;27;20514;-65
2022/07/23 07:56:00;;;;;;;6.10;5.60;;;;;;;;;;5132299;27;20218;-65
2022/07/23 07:58:28;;;;;;;5.82;5.47;;;;;;;;;;5116198;28;20222;-65
2022/07/23 08:00:56;;;;;;;6.60;6.00;;;;;;;;;;5116354;28;20227;-66
2022/07/23 08:03:23;;;;;;;6.05;5.65;;;;;;;;;;5115773;28;20227;-65
2022/07/23 08:05:50;;;;;;;6.45;6.03;;;;;;;;;;5115533;28;20238;-65
2022/07/23 08:08:18;;;;;;;5.95;5.55;;;;;;;;;;5133845;27;20227;-65
2022/07/23 08:10:45;;;;;;;6.13;5.72;;;;;;;;;;5126837;27;20288;-64
2022/07/23 08:13:15;;;;;;;6.43;5.97;;;;;;;;;;5126322;27;20214;-65
2022/07/23 08:15:44;;;;;;;5.88;5.38;;;;;;;;;;5135835;27;20226;-64
2022/07/23 08:18:11;;;;;;;5.72;5.32;;;;;;;;;;5135024;27;20238;-64
2022/07/23 08:20:39;;;;;;;5.63;5.22;;;;;;;;;;5115321;28;20630;-65
2022/07/23 08:23:06;;;;;;;6.20;5.70;;;;;;;;;;5115661;27;20230;-64
2022/07/23 08:25:35;;;;;;;5.97;5.57;;;;;;;;;;5119095;27;20230;-65
2022/07/23 08:28:06;;;;;;;6.20;5.80;;;;;;;;;;5136514;27;20242;-65
2022/07/23 08:30:34;;;;;;;6.05;5.57;;;;;;;;;;5116705;28;20283;-65
2022/07/23 08:33:04;;;;;;;5.97;5.47;;;;;;;;;;5130989;27;20637;-65
2022/07/23 08:35:32;;;;;;;5.85;5.45;;;;;;;;;;5135223;27;20218;-65
2022/07/23 08:38:00;;;;;;;5.78;5.38;;;;;;;;;;5124163;27;20223;-65
2022/07/23 08:40:28;;;;;;;5.78;5.38;;;;;;;;;;5116882;27;20284;-64
2022/07/23 08:42:55;;;;;;;5.78;5.38;;;;;;;;;;5124882;27;20279;-64
2022/07/23 08:45:24;;;;;;;6.45;5.90;;;;;;;;;;5122837;27;20230;-65
2022/07/23 08:47:52;;;;;;;6.10;5.60;;;;;;;;;;5127420;27;20222;-65
2022/07/23 08:50:20;;;;;;;5.93;5.53;;;;;;;;;;5136690;27;20238;-65
2022/07/23 08:52:49;;;;;;;5.82;5.43;;;;;;;;;;5136156;27;20290;-64
2022/07/23 08:55:17;;;;;;;6.10;5.70;;;;;;;;;;5119346;27;20226;-65
2022/07/23 08:57:45;;;;;;;6.05;5.65;;;;;;;;;;5115821;28;20306;-65
2022/07/23 09:00:13;;;;;;;6.32;5.82;;;;;;;;;;5115798;27;20633;-66
2022/07/23 09:02:41;;;;;;;5.90;5.50;;;;;;;;;;5126978;27;20234;-65
2022/07/23 09:05:08;;;;;;;6.25;5.85;;;;;;;;;;5135128;27;20241;-66
2022/07/23 09:07:37;;;;;;;6.15;5.65;;;;;;;;;;5128944;27;20262;-65
2022/07/23 09:10:09;;;;;;;5.68;5.28;;;;;;;;;;5132426;27;20198;-65
2022/07/23 09:12:36;;;;;;;6.60;6.00;;;;;;;;;;5107316;28;20264;-65
2022/07/23 09:15:10;;;;;;;6.22;5.63;;;;;;;;;;5114775;28;20329;-65
2022/07/23 09:17:40;;;;;;;5.65;5.25;;;;;;;;;;5115151;28;20217;-64
2022/07/23 09:20:15;;;;;;;5.63;5.13;;;;;;;;;;5115535;28;20207;-65
2022/07/23 09:22:46;;;;;;;5.85;5.45;;;;;;;;;;5117907;28;20201;-64
2022/07/23 09:25:14;;;;;;;6.03;5.63;;;;;;;;;;5127719;27;20229;-64
2022/07/23 09:27:50;;;;;;;5.80;5.45;;;;;;;;;;5121939;27;20257;-65
2022/07/23 09:30:17;;;;;;;6.10;5.70;;;;;;;;;;5139243;27;20292;-65
2022/07/23 09:32:45;;;;;;;5.85;5.35;;;;;;;;;;5139727;27;20224;-65
2022/07/23 09:35:12;;;;;;;6.05;5.65;;;;;;;;;;5130970;27;20203;-64
2022/07/23 09:37:39;;;;;;;6.10;5.65;;;;;;;;;;5127150;27;20232;-65
2022/07/23 09:40:11;;;;;;;6.13;5.72;;;;;;;;;;5137511;27;20202;-64
2022/07/23 09:42:39;;;;;;;6.78;6.28;;;;;;;;;;5120407;27;20187;-64
2022/07/23 09:45:12;;;;;;;5.93;5.53;;;;;;;;;;5119232;28;20284;-64
2022/07/23 09:47:40;;;;;;;6.03;5.63;;;;;;;;;;5118844;28;20582;-65
2022/07/23 09:50:09;;;;;;;6.40;6.00;;;;;;;;;;5135740;27;20194;-65
2022/07/23 09:52:37;;;;;;;6.78;6.28;;;;;;;;;;5119709;27;20195;-65
2022/07/23 09:55:06;;;;;;;6.10;5.70;;;;;;;;;;5133666;27;20191;-64
2022/07/23 09:57:35;;;;;;;6.43;5.93;;;;;;;;;;5136937;27;20215;-65
2022/07/23 10:00:05;;;;;;;6.05;5.65;;;;;;;;;;5119670;27;20191;-64
2022/07/23 10:02:33;;;;;;;6.00;5.60;;;;;;;;;;5130092;27;20275;-65
2022/07/23 10:05:01;;;;;;;6.05;5.63;;;;;;;;;;5123373;27;20565;-65
2022/07/23 10:07:29;;;;;;;6.57;6.07;;;;;;;;;;5118987;27;20583;-65
2022/07/23 10:09:57;;;;;;;6.30;5.90;;;;;;;;;;5121092;27;20199;-64
2022/07/23 10:15:11;;;;;;;6.72;6.22;;;;;;;;;;5134255;27;20205;-65
2022/07/23 10:17:39;;;;;;;6.57;6.10;;;;;;;;;;5130795;27;20202;-65
2022/07/23 10:20:06;;;;;;;5.63;5.25;;;;;;;;;;5123403;27;20735;-65
2022/07/23 10:22:37;;;;;;;5.88;5.47;;;;;;;;;;5135413;27;20534;-64
2022/07/23 10:25:12;;;;;;;6.13;5.72;;;;;;;;;;5133663;27;20254;-65
2022/07/23 10:27:53;;;;;;;5.88;5.47;;;;;;;;;;5138237;27;20206;-65
2022/07/23 10:30:27;;;;;;;5.88;5.47;;;;;;;;;;5135515;27;20274;-64
2022/07/23 10:33:03;;;;;;;5.80;5.40;;;;;;;;;;5131197;27;20193;-64
2022/07/23 10:35:33;;;;;;;6.13;5.63;;;;;;;;;;5125856;27;20254;-65
2022/07/23 10:38:04;;;;;;;5.72;5.32;;;;;;;;;;5122370;27;20209;-64
2022/07/23 10:40:32;;;;;;;6.10;5.70;;;;;;;;;;5124214;27;20239;-64
2022/07/23 10:43:00;;;;;;;6.47;6.07;;;;;;;;;;5138182;27;20199;-64
2022/07/23 10:45:33;;;;;;;6.45;5.90;;;;;;;;;;5124975;27;20207;-65
2022/07/23 10:48:16;;;;;;;6.10;5.70;;;;;;;;;;5124592;27;20582;-65
2022/07/23 10:50:44;;;;;;;5.65;5.35;;;;;;;;;;5131587;27;20286;-65
2022/07/23 10:53:17;;;;;;;5.90;5.50;;;;;;;;;;5117432;27;20203;-65
2022/07/23 10:55:46;;;;;;;6.18;5.68;;;;;;;;;;5129256;27;20220;-65
2022/07/23 10:58:19;;;;;;;6.57;6.18;;;;;;;;;;5137176;27;20194;-66
2022/07/23 11:00:47;;;;;;;5.93;5.43;;;;;;;;;;5131507;27;20206;-65
2022/07/23 11:03:33;;;;;;;6.13;5.72;;;;;;;;;;5135111;27;20290;-66
2022/07/23 11:06:00;;;;;;;6.05;5.65;;;;;;;;;;5122917;27;20275;-65
2022/07/23 11:08:28;;;;;;;6.10;5.70;;;;;;;;;;5128297;27;20488;-64
2022/07/23 11:10:57;;;;;;;5.93;5.53;;;;;;;;;;5119673;27;20252;-66
2022/07/23 11:13:28;;;;;;;6.47;5.95;;;;;;;;;;5102625;27;20209;-62
2022/07/23 11:16:22;;;;;;;6.13;5.70;;;;;;;;;;5122222;27;20251;-61
2022/07/23 11:19:17;;;;;;;6.32;5.82;;;;;;;;;;5134555;27;20199;-63
2022/07/23 11:21:50;;;;;;;6.10;5.63;;;;;;;;;;5126553;27;20207;-63
2022/07/23 11:24:21;;;;;;;7.22;5.75;;;;;;;;;;5125834;27;20198;-64
2022/07/23 11:26:50;;;;;;;6.70;6.15;;;;;;;;;;5122101;27;20746;-63
2022/07/23 11:29:37;;;;;;;6.60;6.00;;;;;;;;;;5131510;27;20308;-64
2022/07/23 11:32:06;;;;;;;6.68;6.03;;;;;;;;;;5135632;27;20190;-64
2022/07/23 11:34:33;;;;;;;6.65;6.05;;;;;;;;;;5136683;27;20221;-63
2022/07/23 11:37:03;;;;;;;6.47;5.93;;;;;;;;;;5137742;27;20206;-64
2022/07/23 11:39:31;;;;;;;6.28;5.47;;;;;;;;;;5136307;27;20255;-64
2022/07/23 11:41:59;;;;;;;6.55;6.05;;;;;;;;;;5136344;27;20198;-64
2022/07/23 11:44:26;;;;;;;6.40;5.90;;;;;;;;;;5136566;27;20210;-64
2022/07/23 11:46:57;;;;;;;6.60;6.10;;;;;;;;;;5134812;27;20206;-63
2022/07/23 11:49:25;;;;;;;6.50;6.03;;;;;;;;;;5136071;27;20213;-64
2022/07/23 11:52:07;;;;;;;6.72;6.13;;;;;;;;;;5136829;27;20554;-64
2022/07/23 11:54:34;;;;;;;6.93;6.30;;;;;;;;;;5127705;27;20207;-64
2022/07/23 11:57:02;;;;;;;6.38;5.88;;;;;;;;;;5136890;27;20190;-64
2022/07/23 11:59:31;;;;;;;6.82;6.32;;;;;;;;;;5135259;27;20591;-63
2022/07/23 12:01:59;;;;;;;6.18;5.68;;;;;;;;;;5136777;27;20259;-63
2022/07/23 12:04:38;;;;;;;6.75;6.20;;;;;;;;;;5135056;27;20187;-63
2022/07/23 12:07:23;;;;;;;6.07;5.68;;;;;;;;;;5133752;27;20230;-63
2022/07/23 12:09:51;;;;;;;6.68;6.28;;;;;;;;;;5135966;27;20289;-63
2022/07/23 12:12:18;;;;;;;6.47;6.00;;;;;;;;;;5134667;27;20202;-63
2022/07/23 12:14:52;;;;;;;6.80;6.18;;;;;;;;;;5134646;27;20263;-64
2022/07/23 12:17:20;;;;;;;6.18;5.75;;;;;;;;;;5134186;27;20271;-64
2022/07/23 12:19:47;;;;;;;6.88;6.38;;;;;;;;;;5135863;27;20187;-63
2022/07/23 12:22:16;;;;;;;6.90;6.40;;;;;;;;;;5133282;27;20202;-64
2022/07/23 12:24:56;;;;;;;6.90;6.40;;;;;;;;;;5134348;27;20199;-64
2022/07/23 12:27:24;;;;;;;6.50;6.00;;;;;;;;;;5133586;27;20198;-64
2022/07/23 12:29:51;;;;;;;6.53;6.03;;;;;;;;;;5134331;27;20651;-64
2022/07/23 12:32:19;;;;;;;6.60;6.18;;;;;;;;;;5134410;27;20199;-63
2022/07/23 12:34:47;;;;;;;6.63;6.20;;;;;;;;;;5136811;27;20604;-64
2022/07/23 12:37:33;;;;;;;6.55;6.05;;;;;;;;;;5135258;27;20195;-63
2022/07/23 12:40:00;;;;;;;6.75;6.25;;;;;;;;;;5129332;27;20202;-64
2022/07/23 12:42:30;;;;;;;7.00;6.50;;;;;;;;;;5135676;27;20266;-64
2022/07/23 12:45:08;;;;;;;6.05;5.55;;;;;;;;;;5135054;27;20202;-64
2022/07/23 12:47:50;;;;;;;6.63;6.13;;;;;;;;;;5126882;27;20190;-64
2022/07/23 12:50:32;;;;;;;6.43;5.90;;;;;;;;;;5118607;27;20194;-63
2022/07/23 12:53:05;;;;;;;6.57;6.07;;;;;;;;;;5135596;27;20198;-63
2022/07/23 12:55:32;;;;;;;6.60;6.10;;;;;;;;;;5132963;27;20373;-63
2022/07/23 12:58:05;;;;;;;6.10;5.70;;;;;;;;;;5135564;27;20666;-64
2022/07/23 13:00:32;;;;;;;5.93;5.53;;;;;;;;;;5129998;27;20202;-63
2022/07/23 13:03:00;;;;;;;6.43;5.93;;;;;;;;;;5131573;27;20503;-63
2022/07/23 13:05:27;;;;;;;5.80;5.40;;;;;;;;;;5132067;27;20210;-64
2022/07/23 13:07:54;;;;;;;6.40;5.90;;;;;;;;;;5130433;27;20198;-64
2022/07/23 13:10:23;;;;;;;6.32;5.93;;;;;;;;;;5130908;27;20607;-64
2022/07/23 13:12:50;;;;;;;6.50;5.90;;;;;;;;;;5132338;27;20202;-64
2022/07/23 13:15:18;;;;;;;5.72;5.25;;;;;;;;;;5134815;27;20255;-64
2022/07/23 13:17:45;;;;;;;6.50;6.10;;;;;;;;;;5133058;27;20728;-63
2022/07/23 13:20:13;;;;;;;6.30;5.90;;;;;;;;;;5131790;27;20209;-63
2022/07/23 13:22:40;;;;;;;6.28;5.88;;;;;;;;;;5131505;28;20199;-63
2022/07/23 13:25:08;;;;;;;6.78;6.28;;;;;;;;;;5132493;28;20199;-63
2022/07/23 13:27:37;;;;;;;6.03;5.63;;;;;;;;;;5134334;28;20199;-63
2022/07/23 13:30:06;;;;;;;6.32;5.93;;;;;;;;;;5133087;28;20650;-63
2022/07/23 13:32:33;;;;;;;6.38;5.88;;;;;;;;;;5132759;27;20605;-63
2022/07/23 13:35:00;;;;;;;5.97;5.57;;;;;;;;;;5132617;27;20209;-64
2022/07/23 13:37:27;;;;;;;6.10;5.70;;;;;;;;;;5132999;28;20195;-64
2022/07/23 13:39:55;;;;;;;6.10;5.70;;;;;;;;;;5132603;28;20250;-63
2022/07/23 13:42:22;;;;;;;6.40;5.90;;;;;;;;;;5133711;27;20198;-64
2022/07/23 13:44:51;;;;;;;6.30;5.90;;;;;;;;;;5131806;28;20206;-64
2022/07/23 13:47:18;;;;;;;5.90;5.50;;;;;;;;;;5131478;28;20218;-64
2022/07/23 13:49:45;;;;;;;5.70;5.30;;;;;;;;;;5132417;28;20203;-64
2022/07/23 13:52:13;;;;;;;6.18;5.68;;;;;;;;;;5131496;28;20213;-63
2022/07/23 13:54:40;;;;;;;5.90;5.47;;;;;;;;;;5133165;28;20531;-64
2022/07/23 13:57:08;;;;;;;5.80;5.40;;;;;;;;;;5132543;28;20467;-64
2022/07/23 13:59:36;;;;;;;6.00;5.60;;;;;;;;;;5132831;28;20195;-64
2022/07/23 14:02:05;;;;;;;5.70;5.30;;;;;;;;;;5132525;27;20202;-64
2022/07/23 14:04:33;;;;;;;6.03;5.63;;;;;;;;;;5133561;28;20194;-64
2022/07/23 14:07:00;;;;;;;6.30;5.80;;;;;;;;;;5132167;28;20211;-64
2022/07/23 14:09:29;;;;;;;5.63;5.22;;;;;;;;;;5134894;27;20186;-63
2022/07/23 14:11:57;;;;;;;5.95;5.53;;;;;;;;;;5135778;27;20618;-64
2022/07/23 14:14:24;;;;;;;5.80;5.40;;;;;;;;;;5137471;27;20270;-64
2022/07/23 14:16:51;;;;;;;5.80;5.40;;;;;;;;;;5135174;27;20218;-64
2022/07/23 14:19:20;;;;;;;5.97;5.57;;;;;;;;;;5136030;27;20226;-64
2022/07/23 14:21:49;;;;;;;5.75;5.35;;;;;;;;;;5136155;27;20243;-63
2022/07/23 14:24:16;;;;;;;6.05;5.65;;;;;;;;;;5134991;27;20252;-63
2022/07/23 14:26:43;;;;;;;5.88;5.47;;;;;;;;;;5134706;27;20315;-63
2022/07/23 14:29:11;;;;;;;5.82;5.43;;;;;;;;;;5135518;27;20238;-63
2022/07/23 14:31:38;;;;;;;6.00;5.60;;;;;;;;;;5134643;27;20230;-64
2022/07/23 14:34:05;;;;;;;5.93;5.53;;;;;;;;;;5135237;27;20586;-63
2022/07/23 14:36:34;;;;;;;5.80;5.40;;;;;;;;;;5134792;27;20214;-63
2022/07/23 14:39:02;;;;;;;6.15;5.68;;;;;;;;;;5133634;27;20226;-63
2022/07/23 14:41:29;;;;;;;5.65;5.15;;;;;;;;;;5134111;27;20229;-63
2022/07/23 14:43:56;;;;;;;5.85;5.45;;;;;;;;;;5132043;27;20221;-63
2022/07/23 14:46:24;;;;;;;5.72;5.32;;;;;;;;;;5134976;27;20313;-64
2022/07/23 14:48:51;;;;;;;6.05;5.60;;;;;;;;;;5134113;27;20229;-63
2022/07/23 14:51:19;;;;;;;5.53;5.15;;;;;;;;;;5135824;27;20303;-64
2022/07/23 14:53:47;;;;;;;6.15;5.55;;;;;;;;;;5133511;27;20532;-64
2022/07/23 14:56:15;;;;;;;5.85;5.45;;;;;;;;;;5134532;27;20226;-64